sensor_id;sensor_type;location;lat;lon;timestamp;pressure;altitude;pressure_sealevel;temperature;humidity
41712;BME280;27399;51.516;13.670;2023-12-07T00:01:51;100647.34;;;4.07;89.20
41712;BME280;27399;51.516;13.670;2023-12-07T00:04:17;100645.59;;;4.08;89.38
41712;BME280;27399;51.516;13.670;2023-12-07T00:06:42;100654.91;;;3.92;89.54
41712;BME280;27399;51.516;13.670;2023-12-07T00:09:07;100647.53;;;4.15;89.16
41712;BME280;27399;51.516;13.670;2023-12-07T00:11:33;100646.66;;;4.16;89.24
41712;BME280;27399;51.516;13.670;2023-12-07T00:13:58;100651.88;;;4.14;89.26
41712;BME280;27399;51.516;13.670;2023-12-07T00:16:23;100643.94;;;4.13;89.34
41712;BME280;27399;51.516;13.670;2023-12-07T00:18:49;100650.91;;;4.09;89.25
41712;BME280;27399;51.516;13.670;2023-12-07T00:21:14;100655.44;;;4.15;89.18
41712;BME280;27399;51.516;13.670;2023-12-07T00:23:39;100657.97;;;4.10;89.42
41712;BME280;27399;51.516;13.670;2023-12-07T00:26:05;100653.66;;;4.14;89.20
41712;BME280;27399;51.516;13.670;2023-12-07T00:28:30;100650.06;;;4.10;89.71
41712;BME280;27399;51.516;13.670;2023-12-07T00:30:56;100657.44;;;3.85;90.23
41712;BME280;27399;51.516;13.670;2023-12-07T00:33:21;100657.78;;;4.01;90.36
41712;BME280;27399;51.516;13.670;2023-12-07T00:35:47;100656.69;;;3.93;90.85
41712;BME280;27399;51.516;13.670;2023-12-07T00:38:12;100653.19;;;3.94;90.32
41712;BME280;27399;51.516;13.670;2023-12-07T00:40:38;100647.72;;;3.84;91.15
41712;BME280;27399;51.516;13.670;2023-12-07T00:43:05;100652.28;;;3.92;90.86
41712;BME280;27399;51.516;13.670;2023-12-07T00:45:30;100649.81;;;3.99;90.82
41712;BME280;27399;51.516;13.670;2023-12-07T00:47:55;100654.00;;;3.90;90.59
41712;BME280;27399;51.516;13.670;2023-12-07T00:50:21;100651.66;;;4.03;90.54
41712;BME280;27399;51.516;13.670;2023-12-07T00:52:47;100656.50;;;3.83;91.39
41712;BME280;27399;51.516;13.670;2023-12-07T00:55:12;100654.38;;;4.07;90.46
41712;BME280;27399;51.516;13.670;2023-12-07T00:57:37;100655.19;;;4.04;90.55
41712;BME280;27399;51.516;13.670;2023-12-07T01:00:03;100651.59;;;4.00;90.52
41712;BME280;27399;51.516;13.670;2023-12-07T01:02:29;100654.97;;;3.93;90.32
41712;BME280;27399;51.516;13.670;2023-12-07T01:04:54;100660.44;;;4.02;90.27
41712;BME280;27399;51.516;13.670;2023-12-07T01:07:20;100663.09;;;4.04;90.01
41712;BME280;27399;51.516;13.670;2023-12-07T01:09:45;100659.69;;;4.08;89.90
41712;BME280;27399;51.516;13.670;2023-12-07T01:12:11;100679.13;;;4.12;89.65
41712;BME280;27399;51.516;13.670;2023-12-07T01:14:36;100678.94;;;4.04;90.09
41712;BME280;27399;51.516;13.670;2023-12-07T01:17:03;100677.38;;;4.12;89.81
41712;BME280;27399;51.516;13.670;2023-12-07T01:19:28;100679.09;;;4.10;89.83
41712;BME280;27399;51.516;13.670;2023-12-07T01:21:53;100687.47;;;3.91;90.88
41712;BME280;27399;51.516;13.670;2023-12-07T01:24:19;100693.41;;;3.82;90.93
41712;BME280;27399;51.516;13.670;2023-12-07T01:26:44;100692.28;;;3.72;91.83
41712;BME280;27399;51.516;13.670;2023-12-07T01:29:10;100694.44;;;3.88;91.20
41712;BME280;27399;51.516;13.670;2023-12-07T01:31:35;100691.25;;;3.65;92.01
41712;BME280;27399;51.516;13.670;2023-12-07T01:34:00;100687.28;;;3.83;91.45
41712;BME280;27399;51.516;13.670;2023-12-07T01:36:26;100696.25;;;3.91;91.18
41712;BME280;27399;51.516;13.670;2023-12-07T01:38:51;100692.66;;;3.87;91.18
41712;BME280;27399;51.516;13.670;2023-12-07T01:41:17;100702.16;;;3.79;91.45
41712;BME280;27399;51.516;13.670;2023-12-07T01:43:46;100698.00;;;3.91;91.43
41712;BME280;27399;51.516;13.670;2023-12-07T01:46:12;100700.69;;;3.92;91.07
41712;BME280;27399;51.516;13.670;2023-12-07T01:48:38;100698.06;;;3.94;91.42
41712;BME280;27399;51.516;13.670;2023-12-07T01:51:03;100699.00;;;3.96;91.03
41712;BME280;27399;51.516;13.670;2023-12-07T01:53:29;100693.75;;;3.97;91.19
41712;BME280;27399;51.516;13.670;2023-12-07T01:55:55;100699.22;;;4.05;91.05
41712;BME280;27399;51.516;13.670;2023-12-07T01:58:20;100699.22;;;4.05;90.99
41712;BME280;27399;51.516;13.670;2023-12-07T02:00:46;100705.53;;;4.13;90.83
41712;BME280;27399;51.516;13.670;2023-12-07T02:03:12;100701.72;;;3.99;91.03
41712;BME280;27399;51.516;13.670;2023-12-07T02:05:37;100705.50;;;4.10;90.74
41712;BME280;27399;51.516;13.670;2023-12-07T02:08:07;100707.28;;;4.11;90.58
41712;BME280;27399;51.516;13.670;2023-12-07T02:10:32;100710.97;;;4.19;90.67
41712;BME280;27399;51.516;13.670;2023-12-07T02:12:58;100715.22;;;4.13;90.86
41712;BME280;27399;51.516;13.670;2023-12-07T02:15:23;100725.81;;;4.14;90.88
41712;BME280;27399;51.516;13.670;2023-12-07T02:18:00;100719.81;;;4.22;90.41
41712;BME280;27399;51.516;13.670;2023-12-07T02:20:32;100712.69;;;4.17;90.36
41712;BME280;27399;51.516;13.670;2023-12-07T02:23:03;100720.50;;;4.13;90.76
41712;BME280;27399;51.516;13.670;2023-12-07T02:25:31;100710.97;;;4.19;90.70
41712;BME280;27399;51.516;13.670;2023-12-07T02:27:57;100714.06;;;4.00;91.76
41712;BME280;27399;51.516;13.670;2023-12-07T02:30:22;100713.41;;;4.10;91.38
41712;BME280;27399;51.516;13.670;2023-12-07T02:32:48;100712.59;;;4.14;90.96
41712;BME280;27399;51.516;13.670;2023-12-07T02:35:13;100710.81;;;4.13;91.15
41712;BME280;27399;51.516;13.670;2023-12-07T02:37:43;100725.03;;;4.18;90.65
41712;BME280;27399;51.516;13.670;2023-12-07T02:40:09;100720.53;;;4.14;91.21
41712;BME280;27399;51.516;13.670;2023-12-07T02:42:35;100727.78;;;4.23;90.85
41712;BME280;27399;51.516;13.670;2023-12-07T02:45:02;100717.94;;;4.16;91.16
41712;BME280;27399;51.516;13.670;2023-12-07T02:47:28;100719.94;;;4.28;90.65
41712;BME280;27399;51.516;13.670;2023-12-07T02:49:53;100721.66;;;4.26;90.92
41712;BME280;27399;51.516;13.670;2023-12-07T02:52:19;100725.22;;;4.28;90.70
41712;BME280;27399;51.516;13.670;2023-12-07T02:54:44;100730.50;;;4.26;90.99
41712;BME280;27399;51.516;13.670;2023-12-07T02:57:09;100735.63;;;4.20;90.86
41712;BME280;27399;51.516;13.670;2023-12-07T02:59:35;100734.09;;;4.30;90.82
41712;BME280;27399;51.516;13.670;2023-12-07T03:02:00;100741.91;;;4.25;91.15
41712;BME280;27399;51.516;13.670;2023-12-07T03:04:25;100734.84;;;4.26;91.07
41712;BME280;27399;51.516;13.670;2023-12-07T03:06:51;100740.78;;;4.15;91.38
41712;BME280;27399;51.516;13.670;2023-12-07T03:09:16;100741.63;;;4.13;91.60
41712;BME280;27399;51.516;13.670;2023-12-07T03:11:41;100742.69;;;4.21;91.77
41712;BME280;27399;51.516;13.670;2023-12-07T03:14:07;100751.63;;;4.28;91.43
41712;BME280;27399;51.516;13.670;2023-12-07T03:16:32;100751.88;;;3.99;92.77
41712;BME280;27399;51.516;13.670;2023-12-07T03:19:00;100741.75;;;4.19;91.73
41712;BME280;27399;51.516;13.670;2023-12-07T03:21:25;100755.09;;;4.25;91.26
41712;BME280;27399;51.516;13.670;2023-12-07T03:23:50;100756.06;;;4.29;91.34
41712;BME280;27399;51.516;13.670;2023-12-07T03:26:16;100757.03;;;4.34;91.15
41712;BME280;27399;51.516;13.670;2023-12-07T03:28:41;100756.13;;;4.32;91.10
41712;BME280;27399;51.516;13.670;2023-12-07T03:31:07;100762.41;;;4.37;91.04
41712;BME280;27399;51.516;13.670;2023-12-07T03:33:32;100761.31;;;4.27;91.17
41712;BME280;27399;51.516;13.670;2023-12-07T03:35:57;100760.72;;;4.41;90.92
41712;BME280;27399;51.516;13.670;2023-12-07T03:38:23;100753.69;;;4.41;90.72
41712;BME280;27399;51.516;13.670;2023-12-07T03:40:48;100756.69;;;4.17;91.24
41712;BME280;27399;51.516;13.670;2023-12-07T03:43:15;100758.72;;;4.30;91.27
41712;BME280;27399;51.516;13.670;2023-12-07T03:45:40;100751.72;;;4.31;91.31
41712;BME280;27399;51.516;13.670;2023-12-07T03:48:06;100755.22;;;4.30;91.37
41712;BME280;27399;51.516;13.670;2023-12-07T03:50:31;100760.50;;;4.31;91.39
41712;BME280;27399;51.516;13.670;2023-12-07T03:52:56;100766.59;;;4.27;91.24
41712;BME280;27399;51.516;13.670;2023-12-07T03:55:22;100759.56;;;4.28;91.36
41712;BME280;27399;51.516;13.670;2023-12-07T03:57:47;100760.22;;;4.17;92.11
41712;BME280;27399;51.516;13.670;2023-12-07T04:00:12;100760.22;;;4.17;92.16
41712;BME280;27399;51.516;13.670;2023-12-07T04:02:38;100763.03;;;4.25;92.02
41712;BME280;27399;51.516;13.670;2023-12-07T04:05:03;100763.97;;;4.29;92.25
41712;BME280;27399;51.516;13.670;2023-12-07T04:07:29;100760.69;;;4.39;91.55
41712;BME280;27399;51.516;13.670;2023-12-07T04:09:57;100764.19;;;4.38;91.53
41712;BME280;27399;51.516;13.670;2023-12-07T04:12:23;100759.81;;;4.39;91.50
41712;BME280;27399;51.516;13.670;2023-12-07T04:14:49;100759.69;;;4.34;91.62
41712;BME280;27399;51.516;13.670;2023-12-07T04:17:14;100759.59;;;4.29;91.87
41712;BME280;27399;51.516;13.670;2023-12-07T04:19:40;100764.06;;;4.32;91.82
41712;BME280;27399;51.516;13.670;2023-12-07T04:22:05;100765.13;;;4.42;91.49
41712;BME280;27399;51.516;13.670;2023-12-07T04:24:30;100767.69;;;4.37;91.59
41712;BME280;27399;51.516;13.670;2023-12-07T04:26:56;100771.34;;;4.42;91.73
41712;BME280;27399;51.516;13.670;2023-12-07T04:29:21;100770.50;;;4.45;91.60
41712;BME280;27399;51.516;13.670;2023-12-07T04:31:46;100776.66;;;4.45;91.28
41712;BME280;27399;51.516;13.670;2023-12-07T04:34:12;100785.41;;;4.41;91.41
41712;BME280;27399;51.516;13.670;2023-12-07T04:36:37;100781.19;;;4.51;91.27
41712;BME280;27399;51.516;13.670;2023-12-07T04:39:03;100793.41;;;4.46;91.29
41712;BME280;27399;51.516;13.670;2023-12-07T04:41:28;100796.09;;;4.47;91.57
41712;BME280;27399;51.516;13.670;2023-12-07T04:43:53;100797.00;;;4.48;91.21
41712;BME280;27399;51.516;13.670;2023-12-07T04:46:19;100794.91;;;4.33;91.83
41712;BME280;27399;51.516;13.670;2023-12-07T04:48:44;100797.88;;;4.50;91.51
41712;BME280;27399;51.516;13.670;2023-12-07T04:51:10;100797.66;;;4.39;91.57
41712;BME280;27399;51.516;13.670;2023-12-07T04:53:35;100797.88;;;4.50;91.58
41712;BME280;27399;51.516;13.670;2023-12-07T04:56:00;100799.66;;;4.49;91.57
41712;BME280;27399;51.516;13.670;2023-12-07T04:58:26;100801.72;;;4.25;92.43
41712;BME280;27399;51.516;13.670;2023-12-07T05:00:52;100806.59;;;4.44;91.88
41712;BME280;27399;51.516;13.670;2023-12-07T05:03:18;100811.50;;;4.29;92.67
41712;BME280;27399;51.516;13.670;2023-12-07T05:05:43;100802.13;;;4.42;92.36
41712;BME280;27399;51.516;13.670;2023-12-07T05:08:08;100805.63;;;4.41;92.51
41712;BME280;27399;51.516;13.670;2023-12-07T05:10:34;100806.31;;;4.32;92.60
41712;BME280;27399;51.516;13.670;2023-12-07T05:12:59;100805.56;;;4.38;92.46
41712;BME280;27399;51.516;13.670;2023-12-07T05:15:25;100807.50;;;4.46;92.05
41712;BME280;27399;51.516;13.670;2023-12-07T05:17:50;100804.53;;;4.31;92.53
41712;BME280;27399;51.516;13.670;2023-12-07T05:20:15;100810.63;;;4.28;92.86
41712;BME280;27399;51.516;13.670;2023-12-07T05:22:41;100810.09;;;4.43;92.57
41712;BME280;27399;51.516;13.670;2023-12-07T05:25:06;100807.47;;;4.45;92.28
41712;BME280;27399;51.516;13.670;2023-12-07T05:27:32;100816.47;;;4.53;92.05
41712;BME280;27399;51.516;13.670;2023-12-07T05:29:57;100819.22;;;4.58;91.78
41712;BME280;27399;51.516;13.670;2023-12-07T05:32:22;100821.84;;;4.58;92.04
41712;BME280;27399;51.516;13.670;2023-12-07T05:34:48;100818.31;;;4.57;91.91
41712;BME280;27399;51.516;13.670;2023-12-07T05:37:13;100825.41;;;4.58;91.74
41712;BME280;27399;51.516;13.670;2023-12-07T05:39:38;100826.84;;;4.45;92.28
41712;BME280;27399;51.516;13.670;2023-12-07T05:42:04;100822.50;;;4.47;91.87
41712;BME280;27399;51.516;13.670;2023-12-07T05:44:29;100823.56;;;4.56;92.25
41712;BME280;27399;51.516;13.670;2023-12-07T05:46:55;100824.66;;;4.64;91.68
41712;BME280;27399;51.516;13.670;2023-12-07T05:49:20;100826.28;;;4.59;91.93
41712;BME280;27399;51.516;13.670;2023-12-07T05:51:47;100822.84;;;4.63;91.88
41712;BME280;27399;51.516;13.670;2023-12-07T05:54:14;100829.88;;;4.62;91.67
41712;BME280;27399;51.516;13.670;2023-12-07T05:56:39;100830.78;;;4.63;91.67
41712;BME280;27399;51.516;13.670;2023-12-07T05:59:05;100828.13;;;4.63;91.87
41712;BME280;27399;51.516;13.670;2023-12-07T06:01:31;100826.28;;;4.59;91.92
41712;BME280;27399;51.516;13.670;2023-12-07T06:03:57;100828.06;;;4.60;92.30
41712;BME280;27399;51.516;13.670;2023-12-07T06:06:22;100830.56;;;4.54;92.69
41712;BME280;27399;51.516;13.670;2023-12-07T06:08:48;100830.47;;;4.49;92.49
41712;BME280;27399;51.516;13.670;2023-12-07T06:11:13;100834.19;;;4.57;92.46
41712;BME280;27399;51.516;13.670;2023-12-07T06:13:38;100831.56;;;4.59;92.55
41712;BME280;27399;51.516;13.670;2023-12-07T06:16:04;100835.13;;;4.61;92.20
41712;BME280;27399;51.516;13.670;2023-12-07T06:18:30;100840.50;;;4.64;92.34
41712;BME280;27399;51.516;13.670;2023-12-07T06:20:55;100843.13;;;4.64;92.30
41712;BME280;27399;51.516;13.670;2023-12-07T06:23:21;100837.97;;;4.70;92.08
41712;BME280;27399;51.516;13.670;2023-12-07T06:25:46;100841.38;;;4.64;92.29
41712;BME280;27399;51.516;13.670;2023-12-07T06:28:12;100843.91;;;4.60;92.39
41712;BME280;27399;51.516;13.670;2023-12-07T06:30:37;100839.66;;;4.67;91.97
41712;BME280;27399;51.516;13.670;2023-12-07T06:33:03;100851.06;;;4.64;92.14
41712;BME280;27399;51.516;13.670;2023-12-07T06:35:28;100849.31;;;4.64;92.34
41712;BME280;27399;51.516;13.670;2023-12-07T06:37:54;100852.16;;;4.74;91.80
41712;BME280;27399;51.516;13.670;2023-12-07T06:40:19;100852.03;;;4.68;92.32
41712;BME280;27399;51.516;13.670;2023-12-07T06:42:45;100858.19;;;4.68;91.92
41712;BME280;27399;51.516;13.670;2023-12-07T06:45:11;100854.75;;;4.71;91.96
41712;BME280;27399;51.516;13.670;2023-12-07T06:47:39;100853.91;;;4.73;92.11
41712;BME280;27399;51.516;13.670;2023-12-07T06:50:05;100866.19;;;4.71;92.15
41712;BME280;27399;51.516;13.670;2023-12-07T06:52:33;100865.25;;;4.69;92.09
41712;BME280;27399;51.516;13.670;2023-12-07T06:54:58;100860.91;;;4.71;91.95
41712;BME280;27399;51.516;13.670;2023-12-07T06:57:24;100866.22;;;4.73;92.12
41712;BME280;27399;51.516;13.670;2023-12-07T06:59:49;100865.19;;;4.66;92.10
41712;BME280;27399;51.516;13.670;2023-12-07T07:02:14;100870.69;;;4.75;91.68
41712;BME280;27399;51.516;13.670;2023-12-07T07:04:40;100872.44;;;4.76;91.68
41712;BME280;27399;51.516;13.670;2023-12-07T07:07:05;100861.84;;;4.73;91.50
41712;BME280;27399;51.516;13.670;2023-12-07T07:09:30;100867.13;;;4.73;91.74
41712;BME280;27399;51.516;13.670;2023-12-07T07:11:56;100868.91;;;4.74;91.52
41712;BME280;27399;51.516;13.670;2023-12-07T07:14:21;100876.97;;;4.80;91.49
41712;BME280;27399;51.516;13.670;2023-12-07T07:16:46;100874.47;;;4.87;91.25
41712;BME280;27399;51.516;13.670;2023-12-07T07:19:13;100869.00;;;4.79;92.13
41712;BME280;27399;51.516;13.670;2023-12-07T07:21:38;100873.38;;;4.78;91.58
41712;BME280;27399;51.516;13.670;2023-12-07T07:24:03;100879.69;;;4.84;91.02
41712;BME280;27399;51.516;13.670;2023-12-07T07:26:29;100881.28;;;4.77;91.29
41712;BME280;27399;51.516;13.670;2023-12-07T07:28:54;100871.78;;;4.85;91.11
41712;BME280;27399;51.516;13.670;2023-12-07T07:31:20;100870.81;;;4.81;91.37
41712;BME280;27399;51.516;13.670;2023-12-07T07:33:45;100878.00;;;4.87;91.38
41712;BME280;27399;51.516;13.670;2023-12-07T07:36:12;100866.47;;;4.84;91.18
41712;BME280;27399;51.516;13.670;2023-12-07T07:38:38;100870.19;;;4.93;90.95
41712;BME280;27399;51.516;13.670;2023-12-07T07:41:03;100879.09;;;4.97;90.77
41712;BME280;27399;51.516;13.670;2023-12-07T07:43:28;100882.53;;;4.94;91.17
41712;BME280;27399;51.516;13.670;2023-12-07T07:45:54;100877.03;;;4.84;91.18
41712;BME280;27399;51.516;13.670;2023-12-07T07:48:19;100873.75;;;4.95;90.81
41712;BME280;27399;51.516;13.670;2023-12-07T07:50:44;100883.56;;;5.01;90.90
41712;BME280;27399;51.516;13.670;2023-12-07T07:53:10;100880.84;;;4.98;90.93
41712;BME280;27399;51.516;13.670;2023-12-07T07:55:35;100874.00;;;5.06;90.61
41712;BME280;27399;51.516;13.670;2023-12-07T07:58:00;100877.25;;;4.94;91.10
41712;BME280;27399;51.516;13.670;2023-12-07T08:00:26;100880.25;;;5.10;90.82
41712;BME280;27399;51.516;13.670;2023-12-07T08:02:51;100883.00;;;5.15;90.73
41712;BME280;27399;51.516;13.670;2023-12-07T08:05:16;100884.53;;;5.05;90.93
41712;BME280;27399;51.516;13.670;2023-12-07T08:07:42;100887.44;;;5.17;90.41
41712;BME280;27399;51.516;13.670;2023-12-07T08:10:07;100885.56;;;5.11;90.37
41712;BME280;27399;51.516;13.670;2023-12-07T08:12:34;100880.34;;;5.15;90.51
41712;BME280;27399;51.516;13.670;2023-12-07T08:15:00;100881.28;;;5.17;90.59
41712;BME280;27399;51.516;13.670;2023-12-07T08:17:25;100879.50;;;5.17;90.72
41712;BME280;27399;51.516;13.670;2023-12-07T08:19:51;100881.38;;;5.21;90.64
41712;BME280;27399;51.516;13.670;2023-12-07T08:22:17;100883.88;;;5.15;90.84
41712;BME280;27399;51.516;13.670;2023-12-07T08:24:42;100888.41;;;5.21;90.63
41712;BME280;27399;51.516;13.670;2023-12-07T08:27:07;100890.78;;;5.08;90.98
41712;BME280;27399;51.516;13.670;2023-12-07T08:29:33;100894.44;;;5.14;91.04
41712;BME280;27399;51.516;13.670;2023-12-07T08:31:59;100893.19;;;4.96;91.38
41712;BME280;27399;51.516;13.670;2023-12-07T08:34:24;100890.81;;;4.69;93.16
41712;BME280;27399;51.516;13.670;2023-12-07T08:36:50;100893.88;;;4.89;92.62
41712;BME280;27399;51.516;13.670;2023-12-07T08:39:15;100888.53;;;4.86;92.37
41712;BME280;27399;51.516;13.670;2023-12-07T08:41:41;100894.59;;;4.81;92.66
41712;BME280;27399;51.516;13.670;2023-12-07T08:44:06;100898.13;;;4.82;93.04
41712;BME280;27399;51.516;13.670;2023-12-07T08:46:31;100901.47;;;4.73;93.82
41712;BME280;27399;51.516;13.670;2023-12-07T08:48:57;100902.81;;;4.94;93.04
41712;BME280;27399;51.516;13.670;2023-12-07T08:51:22;100898.66;;;5.05;92.46
41712;BME280;27399;51.516;13.670;2023-12-07T08:53:49;100901.66;;;4.81;92.70
41712;BME280;27399;51.516;13.670;2023-12-07T08:56:14;100910.09;;;5.04;92.50
41712;BME280;27399;51.516;13.670;2023-12-07T08:58:40;100912.84;;;5.09;92.37
41712;BME280;27399;51.516;13.670;2023-12-07T09:01:06;100920.75;;;5.07;92.21
41712;BME280;27399;51.516;13.670;2023-12-07T09:03:31;100924.28;;;5.09;92.30
41712;BME280;27399;51.516;13.670;2023-12-07T09:05:58;100919.94;;;5.11;92.13
41712;BME280;27399;51.516;13.670;2023-12-07T09:08:24;100925.75;;;4.95;92.18
41712;BME280;27399;51.516;13.670;2023-12-07T09:10:49;100930.56;;;5.13;92.61
41712;BME280;27399;51.516;13.670;2023-12-07T09:13:17;100929.53;;;5.06;92.42
41712;BME280;27399;51.516;13.670;2023-12-07T09:15:43;100934.00;;;5.09;92.42
41712;BME280;27399;51.516;13.670;2023-12-07T09:18:09;100928.03;;;5.19;92.21
41712;BME280;27399;51.516;13.670;2023-12-07T09:20:36;100928.44;;;4.98;92.85
41712;BME280;27399;51.516;13.670;2023-12-07T09:23:02;100929.59;;;4.71;93.45
41712;BME280;27399;51.516;13.670;2023-12-07T09:25:28;100920.50;;;4.96;93.22
41712;BME280;27399;51.516;13.670;2023-12-07T09:27:55;100927.59;;;4.99;92.97
41712;BME280;27399;51.516;13.670;2023-12-07T09:30:21;100932.97;;;5.04;92.70
41712;BME280;27399;51.516;13.670;2023-12-07T09:32:46;100928.59;;;5.04;92.73
41712;BME280;27399;51.516;13.670;2023-12-07T09:35:12;100925.78;;;4.96;92.97
41712;BME280;27399;51.516;13.670;2023-12-07T09:37:44;100931.44;;;5.14;92.41
41712;BME280;27399;51.516;13.670;2023-12-07T09:40:13;100927.56;;;4.97;92.87
41712;BME280;27399;51.516;13.670;2023-12-07T09:42:40;100927.94;;;5.15;92.23
41712;BME280;27399;51.516;13.670;2023-12-07T09:45:07;100931.63;;;5.23;92.10
41712;BME280;27399;51.516;13.670;2023-12-07T09:47:32;100931.53;;;5.17;91.91
41712;BME280;27399;51.516;13.670;2023-12-07T09:49:59;100927.19;;;5.20;91.78
41712;BME280;27399;51.516;13.670;2023-12-07T09:55:27;100935.19;;;5.23;91.63
41712;BME280;27399;51.516;13.670;2023-12-07T09:57:53;100933.34;;;5.21;91.53
41712;BME280;27399;51.516;13.670;2023-12-07T10:00:21;100937.00;;;5.26;91.64
41712;BME280;27399;51.516;13.670;2023-12-07T10:02:47;100930.03;;;5.30;91.36
41712;BME280;27399;51.516;13.670;2023-12-07T10:05:13;100931.78;;;5.29;90.99
41712;BME280;27399;51.516;13.670;2023-12-07T10:07:45;100927.41;;;5.31;91.03
41712;BME280;27399;51.516;13.670;2023-12-07T10:10:12;100936.16;;;5.28;91.30
41712;BME280;27399;51.516;13.670;2023-12-07T10:12:44;100925.84;;;5.39;90.70
41712;BME280;27399;51.516;13.670;2023-12-07T10:15:15;100925.84;;;5.39;90.87
41712;BME280;27399;51.516;13.670;2023-12-07T10:17:48;100924.13;;;5.43;90.77
41712;BME280;27399;51.516;13.670;2023-12-07T10:20:17;100919.53;;;5.34;90.84
41712;BME280;27399;51.516;13.670;2023-12-07T10:22:43;100919.72;;;5.43;90.50
41712;BME280;27399;51.516;13.670;2023-12-07T10:25:09;100925.19;;;5.53;90.18
41712;BME280;27399;51.516;13.670;2023-12-07T10:27:34;100921.44;;;5.41;90.86
41712;BME280;27399;51.516;13.670;2023-12-07T10:30:00;100924.94;;;5.40;90.67
41712;BME280;27399;51.516;13.670;2023-12-07T10:32:26;100919.66;;;5.40;90.90
41712;BME280;27399;51.516;13.670;2023-12-07T10:34:52;100920.50;;;5.38;91.16
41712;BME280;27399;51.516;13.670;2023-12-07T10:37:17;100929.28;;;5.37;91.05
41712;BME280;27399;51.516;13.670;2023-12-07T10:39:43;100928.44;;;5.38;90.97
41712;BME280;27399;51.516;13.670;2023-12-07T10:42:09;100925.59;;;5.30;91.03
41712;BME280;27399;51.516;13.670;2023-12-07T10:44:36;100923.19;;;5.39;90.87
41712;BME280;27399;51.516;13.670;2023-12-07T10:47:06;100929.34;;;5.40;90.45
41712;BME280;27399;51.516;13.670;2023-12-07T10:49:35;100933.69;;;5.36;90.56
41712;BME280;27399;51.516;13.670;2023-12-07T10:52:03;100925.69;;;5.33;90.74
41712;BME280;27399;51.516;13.670;2023-12-07T10:54:35;100930.00;;;5.28;90.92
41712;BME280;27399;51.516;13.670;2023-12-07T10:57:02;100930.22;;;5.40;90.77
41712;BME280;27399;51.516;13.670;2023-12-07T10:59:30;100926.53;;;5.32;90.60
41712;BME280;27399;51.516;13.670;2023-12-07T11:01:58;100930.13;;;5.34;90.58
41712;BME280;27399;51.516;13.670;2023-12-07T11:04:24;100925.75;;;5.36;90.83
41712;BME280;27399;51.516;13.670;2023-12-07T11:06:50;100930.75;;;5.22;91.55
41712;BME280;27399;51.516;13.670;2023-12-07T11:09:19;100928.25;;;5.30;91.05
41712;BME280;27399;51.516;13.670;2023-12-07T11:11:47;100931.72;;;5.27;90.98
41712;BME280;27399;51.516;13.670;2023-12-07T11:14:14;100931.06;;;5.36;91.05
41712;BME280;27399;51.516;13.670;2023-12-07T11:16:40;100927.41;;;5.31;91.25
41712;BME280;27399;51.516;13.670;2023-12-07T11:21:50;100925.75;;;5.36;91.17
41712;BME280;27399;51.516;13.670;2023-12-07T11:24:16;100916.78;;;5.30;91.47
41712;BME280;27399;51.516;13.670;2023-12-07T11:26:42;100924.72;;;5.28;91.63
41712;BME280;27399;51.516;13.670;2023-12-07T11:29:07;100920.31;;;5.30;91.21
41712;BME280;27399;51.516;13.670;2023-12-07T11:31:33;100923.88;;;5.31;91.41
41712;BME280;27399;51.516;13.670;2023-12-07T11:34:01;100921.22;;;5.29;91.25
41712;BME280;27399;51.516;13.670;2023-12-07T11:36:30;100924.81;;;5.34;91.46
41712;BME280;27399;51.516;13.670;2023-12-07T11:41:34;100915.03;;;5.30;91.40
41712;BME280;27399;51.516;13.670;2023-12-07T11:44:00;100923.22;;;5.42;91.27
41712;BME280;27399;51.516;13.670;2023-12-07T11:46:26;100921.22;;;5.29;91.35
41712;BME280;27399;51.516;13.670;2023-12-07T11:48:51;100920.50;;;5.38;91.18
41712;BME280;27399;51.516;13.670;2023-12-07T11:51:17;100914.34;;;5.40;91.10
41712;BME280;27399;51.516;13.670;2023-12-07T11:53:43;100912.59;;;5.39;91.18
41712;BME280;27399;51.516;13.670;2023-12-07T11:56:09;100921.16;;;5.27;91.60
41712;BME280;27399;51.516;13.670;2023-12-07T11:58:35;100910.81;;;5.38;91.56
41712;BME280;27399;51.516;13.670;2023-12-07T12:01:01;100918.50;;;5.26;91.72
41712;BME280;27399;51.516;13.670;2023-12-07T12:03:27;100912.38;;;5.30;92.09
41712;BME280;27399;51.516;13.670;2023-12-07T12:05:53;100913.91;;;5.19;91.52
41712;BME280;27399;51.516;13.670;2023-12-07T12:08:19;100919.28;;;5.22;91.96
41712;BME280;27399;51.516;13.670;2023-12-07T12:10:46;100915.56;;;5.14;91.89
41712;BME280;27399;51.516;13.670;2023-12-07T12:13:11;100912.94;;;5.15;92.02
41712;BME280;27399;51.516;13.670;2023-12-07T12:15:40;100913.16;;;5.24;91.49
41712;BME280;27399;51.516;13.670;2023-12-07T12:18:05;100910.66;;;5.32;91.34
41712;BME280;27399;51.516;13.670;2023-12-07T12:20:31;100911.13;;;5.11;91.83
41712;BME280;27399;51.516;13.670;2023-12-07T12:22:57;100913.88;;;5.17;91.97
41712;BME280;27399;51.516;13.670;2023-12-07T12:25:23;100912.06;;;5.15;92.03
41712;BME280;27399;51.516;13.670;2023-12-07T12:27:54;100916.63;;;5.22;91.46
41712;BME280;27399;51.516;13.670;2023-12-07T12:30:20;100914.72;;;5.15;91.91
41712;BME280;27399;51.516;13.670;2023-12-07T12:32:48;100916.34;;;5.08;91.90
41712;BME280;27399;51.516;13.670;2023-12-07T12:35:13;100911.03;;;5.06;91.84
41712;BME280;27399;51.516;13.670;2023-12-07T12:37:43;100913.88;;;5.16;91.40
41712;BME280;27399;51.516;13.670;2023-12-07T12:40:10;100919.00;;;5.09;92.04
41712;BME280;27399;51.516;13.670;2023-12-07T12:42:35;100917.16;;;5.05;91.80
41712;BME280;27399;51.516;13.670;2023-12-07T12:45:04;100909.53;;;5.19;91.03
41712;BME280;27399;51.516;13.670;2023-12-07T12:47:30;100914.06;;;5.25;91.24
41712;BME280;27399;51.516;13.670;2023-12-07T12:49:56;100914.75;;;5.16;91.40
41712;BME280;27399;51.516;13.670;2023-12-07T12:52:23;100909.69;;;5.27;91.02